Time;durP1;ratioP1;P1;durP2;ratioP2;P2;SDS_P1;SDS_P2;PMS_P1;PMS_P2;Temp;Humidity;BMP_temperature;BMP_pressure;BME280_temperature;BME280_humidity;BME280_pressure;Samples;Min_cycle;Max_cycle;Signal;HPM_P1;HPM_P2
2022/09/17 00:01:23;;;;;;;25.75;3.78;;;;;;;;;;5110758;28;20046;-78
2022/09/17 00:03:51;;;;;;;24.02;3.38;;;;;;;;;;5112743;28;20489;-78
2022/09/17 00:06:17;;;;;;;21.75;3.10;;;;;;;;;;5081608;28;20051;-78
2022/09/17 00:08:43;;;;;;;27.88;4.00;;;;;;;;;;5108566;28;20055;-78
2022/09/17 00:11:10;;;;;;;20.27;3.58;;;;;;;;;;5105972;28;20520;-78
2022/09/17 00:13:37;;;;;;;20.83;3.45;;;;;;;;;;5106857;28;20048;-78
2022/09/17 00:16:03;;;;;;;25.17;3.45;;;;;;;;;;5103175;28;20438;-78
2022/09/17 00:18:29;;;;;;;25.30;3.38;;;;;;;;;;5104559;28;20055;-79
2022/09/17 00:20:55;;;;;;;19.65;3.15;;;;;;;;;;5101893;28;20036;-78
2022/09/17 00:23:21;;;;;;;23.77;3.25;;;;;;;;;;5104076;28;20089;-78
2022/09/17 00:25:47;;;;;;;22.80;3.17;;;;;;;;;;5098666;28;20153;-78
2022/09/17 00:28:14;;;;;;;19.02;2.95;;;;;;;;;;5102343;28;20051;-78
2022/09/17 00:30:44;;;;;;;18.58;3.53;;;;;;;;;;5103119;28;20051;-78
2022/09/17 00:33:14;;;;;;;18.55;3.03;;;;;;;;;;5102843;28;20046;-78
2022/09/17 00:35:41;;;;;;;26.30;4.72;;;;;;;;;;5104298;28;20048;-78
2022/09/17 00:38:07;;;;;;;26.15;3.45;;;;;;;;;;5103862;28;20069;-78
2022/09/17 00:40:33;;;;;;;22.08;2.88;;;;;;;;;;5102675;28;20043;-78
2022/09/17 00:42:59;;;;;;;19.67;3.28;;;;;;;;;;5103363;28;20044;-78
2022/09/17 00:45:26;;;;;;;23.50;3.50;;;;;;;;;;5103713;28;20048;-78
2022/09/17 00:47:57;;;;;;;24.38;3.08;;;;;;;;;;5103003;28;20040;-78
2022/09/17 00:50:23;;;;;;;;;;;;;;;;;;5103983;28;20035;-78
2022/09/17 00:52:50;;;;;;;19.27;3.00;;;;;;;;;;5103133;28;20417;-78
2022/09/17 00:55:28;;;;;;;21.63;3.05;;;;;;;;;;5102395;28;20044;-78
2022/09/17 00:57:57;;;;;;;21.33;2.97;;;;;;;;;;5103651;28;20044;-78
2022/09/17 01:00:25;;;;;;;20.77;3.25;;;;;;;;;;5111136;28;20120;-78
2022/09/17 01:02:52;;;;;;;23.02;3.08;;;;;;;;;;5112807;28;20044;-78
2022/09/17 01:05:20;;;;;;;19.63;2.60;;;;;;;;;;5109029;28;20040;-78
2022/09/17 01:08:01;;;;;;;20.40;3.30;;;;;;;;;;5112344;28;20382;-78
2022/09/17 01:10:30;;;;;;;15.23;2.75;;;;;;;;;;5098586;28;20507;-78
2022/09/17 01:13:15;;;;;;;16.48;2.38;;;;;;;;;;5108510;28;20425;-78
2022/09/17 01:15:44;;;;;;;19.38;2.38;;;;;;;;;;5110405;28;20043;-78
2022/09/17 01:18:28;;;;;;;18.10;2.47;;;;;;;;;;5113661;28;20039;-78
2022/09/17 01:21:13;;;;;;;14.55;2.03;;;;;;;;;;5104032;28;20489;-78
2022/09/17 01:23:39;;;;;;;15.60;2.47;;;;;;;;;;5108398;28;20036;-78
2022/09/17 01:26:25;;;;;;;14.70;2.20;;;;;;;;;;5113139;28;20035;-78
2022/09/17 01:29:10;;;;;;;11.80;2.10;;;;;;;;;;5114261;28;20044;-78
2022/09/17 01:31:49;;;;;;;17.85;2.17;;;;;;;;;;5115322;28;20039;-78
2022/09/17 01:34:21;;;;;;;14.43;2.40;;;;;;;;;;5122039;28;20035;-78
2022/09/17 01:36:59;;;;;;;10.25;1.67;;;;;;;;;;5114436;28;20078;-78
2022/09/17 01:39:30;;;;;;;13.55;2.10;;;;;;;;;;5114895;28;20054;-78
2022/09/17 01:42:08;;;;;;;12.82;2.22;;;;;;;;;;5102717;28;20563;-78
2022/09/17 01:44:40;;;;;;;13.57;1.85;;;;;;;;;;5110097;28;20494;-78
2022/09/17 01:47:13;;;;;;;12.77;2.00;;;;;;;;;;5110474;28;20040;-78
2022/09/17 01:49:40;;;;;;;18.00;2.47;;;;;;;;;;5113800;28;20046;-78
2022/09/17 01:52:08;;;;;;;15.23;2.25;;;;;;;;;;5108667;28;20123;-78
2022/09/17 01:54:37;;;;;;;16.08;2.67;;;;;;;;;;5112054;28;20466;-78
2022/09/17 01:57:05;;;;;;;16.52;2.33;;;;;;;;;;5113070;28;20059;-78
2022/09/17 01:59:42;;;;;;;18.63;2.67;;;;;;;;;;5112516;28;20521;-78
2022/09/17 02:02:14;;;;;;;17.75;2.60;;;;;;;;;;5104423;28;20093;-78
2022/09/17 02:04:46;;;;;;;16.98;2.50;;;;;;;;;;5113391;28;20071;-79
2022/09/17 02:07:12;;;;;;;;;;;;;;;;;;5108045;28;20518;-78
2022/09/17 02:09:43;;;;;;;16.45;2.80;;;;;;;;;;5113753;28;19919;-78
2022/09/17 02:12:15;;;;;;;15.50;2.65;;;;;;;;;;5101989;28;20047;-78
2022/09/17 02:14:46;;;;;;;18.05;2.97;;;;;;;;;;5115289;28;20563;-78
2022/09/17 02:17:19;;;;;;;16.48;2.47;;;;;;;;;;5104027;28;20040;-78
2022/09/17 02:19:46;;;;;;;16.92;2.13;;;;;;;;;;5113137;28;20044;-78
2022/09/17 02:22:18;;;;;;;16.50;2.40;;;;;;;;;;5111104;28;20127;-78
2022/09/17 02:24:52;;;;;;;14.43;2.50;;;;;;;;;;5112949;28;21930;-78
2022/09/17 02:27:22;;;;;;;16.75;2.47;;;;;;;;;;5099417;28;20036;-78
2022/09/17 02:29:48;;;;;;;17.50;2.60;;;;;;;;;;5105530;28;20043;-78
2022/09/17 02:32:14;;;;;;;16.05;2.60;;;;;;;;;;5107977;28;20047;-78
2022/09/17 02:34:41;;;;;;;20.20;2.75;;;;;;;;;;5112725;28;20507;-78
2022/09/17 02:37:07;;;;;;;20.75;3.33;;;;;;;;;;5108439;28;20055;-78
2022/09/17 02:39:33;;;;;;;20.02;2.88;;;;;;;;;;5100636;28;20039;-78
2022/09/17 02:42:08;;;;;;;17.02;2.00;;;;;;;;;;5113216;28;20040;-78
2022/09/17 02:44:45;;;;;;;19.77;2.45;;;;;;;;;;5114169;28;20039;-78
2022/09/17 02:47:32;;;;;;;15.10;2.67;;;;;;;;;;5110627;28;20040;-78
2022/09/17 02:50:04;;;;;;;16.00;2.35;;;;;;;;;;5110834;28;20391;-78
2022/09/17 02:52:36;;;;;;;19.48;2.90;;;;;;;;;;5113531;28;20043;-78
2022/09/17 02:55:09;;;;;;;21.38;2.97;;;;;;;;;;5098422;28;20044;-78
2022/09/17 02:57:35;;;;;;;17.83;2.92;;;;;;;;;;5111389;28;20545;-78
2022/09/17 03:00:08;;;;;;;13.82;2.50;;;;;;;;;;5113334;28;20481;-78
2022/09/17 03:02:49;;;;;;;18.58;2.88;;;;;;;;;;5113325;28;20035;-78
2022/09/17 03:05:17;;;;;;;19.15;3.00;;;;;;;;;;5108684;28;20034;-78
2022/09/17 03:07:44;;;;;;;18.17;2.45;;;;;;;;;;5104771;28;20040;-78
2022/09/17 03:10:10;;;;;;;18.25;2.60;;;;;;;;;;5112067;28;20032;-78
2022/09/17 03:12:36;;;;;;;18.27;2.88;;;;;;;;;;5111920;28;20508;-78
2022/09/17 03:15:03;;;;;;;24.42;2.92;;;;;;;;;;5109817;28;20098;-77
2022/09/17 03:17:29;;;;;;;17.58;2.42;;;;;;;;;;5107293;28;20055;-77
2022/09/17 03:19:55;;;;;;;13.70;2.20;;;;;;;;;;5102902;28;20119;-77
2022/09/17 03:22:21;;;;;;;20.15;2.60;;;;;;;;;;5112004;28;20119;-77
2022/09/17 03:24:47;;;;;;;19.70;2.63;;;;;;;;;;5111411;28;20102;-77
2022/09/17 03:27:13;;;;;;;16.25;3.10;;;;;;;;;;5108622;28;20463;-77
2022/09/17 03:29:39;;;;;;;18.95;2.55;;;;;;;;;;5112813;28;20039;-77
2022/09/17 03:32:05;;;;;;;15.68;2.25;;;;;;;;;;5103067;28;20398;-77
2022/09/17 03:34:31;;;;;;;17.73;2.78;;;;;;;;;;5097384;28;20039;-78
2022/09/17 03:36:57;;;;;;;20.88;2.42;;;;;;;;;;5113171;28;20051;-77
2022/09/17 03:39:24;;;;;;;17.40;2.47;;;;;;;;;;5112428;28;20478;-77
2022/09/17 03:41:50;;;;;;;19.73;2.67;;;;;;;;;;5110364;28;20550;-77
2022/09/17 03:44:18;;;;;;;17.88;2.78;;;;;;;;;;5101770;27;20048;-77
2022/09/17 03:46:44;;;;;;;19.30;2.38;;;;;;;;;;5111732;28;20074;-78
2022/09/17 03:49:10;;;;;;;14.77;2.55;;;;;;;;;;5110957;28;20046;-77
2022/09/17 03:51:36;;;;;;;19.40;2.80;;;;;;;;;;5111738;28;20040;-77
2022/09/17 03:54:02;;;;;;;15.00;2.13;;;;;;;;;;5112265;28;20455;-78
2022/09/17 03:56:28;;;;;;;15.32;2.67;;;;;;;;;;5112606;28;20040;-78
2022/09/17 03:58:58;;;;;;;15.18;2.35;;;;;;;;;;5110251;28;20115;-77
2022/09/17 04:01:25;;;;;;;18.00;2.78;;;;;;;;;;5110322;28;20047;-77
2022/09/17 04:03:51;;;;;;;17.48;2.40;;;;;;;;;;5107836;28;20048;-77
2022/09/17 04:06:17;;;;;;;17.85;2.80;;;;;;;;;;5102957;28;20047;-77
2022/09/17 04:08:43;;;;;;;19.80;2.90;;;;;;;;;;5106420;28;20070;-77
2022/09/17 04:11:09;;;;;;;19.88;2.80;;;;;;;;;;5110986;28;20039;-78
2022/09/17 04:13:35;;;;;;;17.02;2.42;;;;;;;;;;5112315;28;20050;-78
2022/09/17 04:16:02;;;;;;;17.73;2.30;;;;;;;;;;5111132;28;20096;-78
2022/09/17 04:18:28;;;;;;;18.52;2.45;;;;;;;;;;5110681;28;20498;-77
2022/09/17 04:20:54;;;;;;;16.67;2.58;;;;;;;;;;5110271;28;20051;-78
2022/09/17 04:23:20;;;;;;;15.88;2.22;;;;;;;;;;5104783;28;20058;-77
2022/09/17 04:25:46;;;;;;;17.55;2.10;;;;;;;;;;5110331;28;20118;-78
2022/09/17 04:28:12;;;;;;;13.13;2.00;;;;;;;;;;5107211;28;20729;-78
2022/09/17 04:30:40;;;;;;;10.23;1.70;;;;;;;;;;5106788;28;20042;-78
2022/09/17 04:33:06;;;;;;;12.48;1.80;;;;;;;;;;5095176;28;20505;-78
2022/09/17 04:35:32;;;;;;;10.13;1.58;;;;;;;;;;5110205;28;20502;-78
2022/09/17 04:37:58;;;;;;;14.10;1.80;;;;;;;;;;5109694;28;20047;-78
2022/09/17 04:40:25;;;;;;;13.15;2.13;;;;;;;;;;5109078;28;20075;-77
2022/09/17 04:42:55;;;;;;;17.10;2.10;;;;;;;;;;5092528;28;20051;-78
2022/09/17 04:45:21;;;;;;;15.30;2.03;;;;;;;;;;5102404;28;20050;-78
2022/09/17 04:47:49;;;;;;;14.05;2.00;;;;;;;;;;5110479;28;20126;-78
2022/09/17 04:50:16;;;;;;;14.70;2.35;;;;;;;;;;5111818;28;20044;-78
2022/09/17 04:52:42;;;;;;;13.35;2.22;;;;;;;;;;5101221;28;20044;-78
2022/09/17 04:55:09;;;;;;;13.88;2.30;;;;;;;;;;5100789;28;20036;-78
2022/09/17 04:57:35;;;;;;;12.73;2.47;;;;;;;;;;5115752;28;20067;-78
2022/09/17 05:00:01;;;;;;;16.80;2.33;;;;;;;;;;5115809;28;20047;-78
2022/09/17 05:02:27;;;;;;;11.43;1.83;;;;;;;;;;5103713;28;20047;-77
2022/09/17 05:04:55;;;;;;;12.57;1.58;;;;;;;;;;5100445;28;20051;-78
2022/09/17 05:07:22;;;;;;;15.10;2.50;;;;;;;;;;5097311;28;20051;-77
2022/09/17 05:09:48;;;;;;;12.60;2.00;;;;;;;;;;5111975;28;20118;-77
2022/09/17 05:12:14;;;;;;;18.08;2.58;;;;;;;;;;5106832;28;20044;-78
2022/09/17 05:14:40;;;;;;;14.20;2.20;;;;;;;;;;5113825;28;20055;-77
2022/09/17 05:17:06;;;;;;;14.90;2.20;;;;;;;;;;5112268;28;20343;-78
2022/09/17 05:19:32;;;;;;;14.57;2.30;;;;;;;;;;5112840;28;20405;-77
2022/09/17 05:21:58;;;;;;;15.75;1.90;;;;;;;;;;5110674;28;20401;-78
2022/09/17 05:24:26;;;;;;;13.57;1.92;;;;;;;;;;5113452;28;20113;-77
2022/09/17 05:26:52;;;;;;;15.93;2.20;;;;;;;;;;5111650;28;20054;-77
2022/09/17 05:29:18;;;;;;;14.05;2.15;;;;;;;;;;5113914;28;20093;-78
2022/09/17 05:31:44;;;;;;;12.93;1.98;;;;;;;;;;5110079;28;20040;-78
2022/09/17 05:34:10;;;;;;;14.13;2.08;;;;;;;;;;5094904;28;20048;-78
2022/09/17 05:36:36;;;;;;;16.17;1.80;;;;;;;;;;5111317;28;20097;-77
2022/09/17 05:39:02;;;;;;;13.15;1.88;;;;;;;;;;5110626;28;20063;-77
2022/09/17 05:41:28;;;;;;;16.27;2.72;;;;;;;;;;5113257;28;20546;-78
2022/09/17 05:43:54;;;;;;;12.18;1.73;;;;;;;;;;5094570;28;20547;-77
2022/09/17 05:46:20;;;;;;;15.40;2.47;;;;;;;;;;5104413;28;20074;-78
2022/09/17 05:48:46;;;;;;;12.13;1.92;;;;;;;;;;5106314;28;20309;-77
2022/09/17 05:51:12;;;;;;;11.88;2.03;;;;;;;;;;5105394;28;20050;-78
2022/09/17 05:53:38;;;;;;;11.82;2.05;;;;;;;;;;5106177;28;20035;-77
2022/09/17 05:56:05;;;;;;;14.20;2.45;;;;;;;;;;5105282;28;20248;-78
2022/09/17 05:58:33;;;;;;;15.18;1.98;;;;;;;;;;5106342;28;20056;-77
2022/09/17 06:01:00;;;;;;;12.50;2.25;;;;;;;;;;5104900;28;20044;-78
2022/09/17 06:03:26;;;;;;;13.68;2.05;;;;;;;;;;5103761;28;20048;-77
2022/09/17 06:05:53;;;;;;;15.48;2.50;;;;;;;;;;5108212;28;20109;-77
2022/09/17 06:08:20;;;;;;;16.02;2.00;;;;;;;;;;5113273;28;20085;-77
2022/09/17 06:10:46;;;;;;;12.27;1.88;;;;;;;;;;5105080;28;20401;-77
2022/09/17 06:13:12;;;;;;;13.00;2.45;;;;;;;;;;5112011;28;20073;-77
2022/09/17 06:15:38;;;;;;;13.93;2.67;;;;;;;;;;5113938;28;20074;-78
2022/09/17 06:18:04;;;;;;;10.52;2.17;;;;;;;;;;5113996;28;20429;-77
2022/09/17 06:20:30;;;;;;;12.85;2.03;;;;;;;;;;5110389;28;20047;-77
2022/09/17 06:22:56;;;;;;;14.45;2.25;;;;;;;;;;5111552;28;20498;-78
2022/09/17 06:25:22;;;;;;;13.77;2.03;;;;;;;;;;5113925;28;20039;-77
2022/09/17 06:27:48;;;;;;;14.60;1.95;;;;;;;;;;5108869;28;20114;-78
2022/09/17 06:30:15;;;;;;;13.68;1.90;;;;;;;;;;5101351;28;20077;-78
2022/09/17 06:32:40;;;;;;;11.13;1.60;;;;;;;;;;5099423;28;20097;-77
2022/09/17 06:35:07;;;;;;;9.82;2.00;;;;;;;;;;5108183;28;20136;-78
2022/09/17 06:37:35;;;;;;;10.82;1.95;;;;;;;;;;5104526;28;20127;-78
2022/09/17 06:40:01;;;;;;;8.88;1.65;;;;;;;;;;5101819;28;20079;-78
2022/09/17 06:42:27;;;;;;;8.55;1.50;;;;;;;;;;5111497;28;20047;-78
2022/09/17 06:44:53;;;;;;;9.57;1.65;;;;;;;;;;5110248;27;20512;-78
2022/09/17 06:47:20;;;;;;;10.60;2.13;;;;;;;;;;5111553;28;20368;-78
2022/09/17 06:49:46;;;;;;;10.05;1.40;;;;;;;;;;5111005;28;20448;-78
2022/09/17 06:52:12;;;;;;;9.98;1.73;;;;;;;;;;5112447;28;20035;-78
2022/09/17 06:54:38;;;;;;;12.65;1.60;;;;;;;;;;5111544;28;20127;-78
2022/09/17 06:57:05;;;;;;;10.52;1.70;;;;;;;;;;5096102;28;20073;-78
2022/09/17 06:59:31;;;;;;;5.25;1.00;;;;;;;;;;5112193;28;20035;-77
2022/09/17 07:01:57;;;;;;;9.68;1.60;;;;;;;;;;5111495;28;20047;-78
2022/09/17 07:04:23;;;;;;;13.70;1.48;;;;;;;;;;5111980;28;20059;-77
2022/09/17 07:06:49;;;;;;;9.70;1.77;;;;;;;;;;5112608;28;20046;-77
2022/09/17 07:09:15;;;;;;;8.65;1.45;;;;;;;;;;5108244;28;20044;-77
2022/09/17 07:11:41;;;;;;;10.90;2.10;;;;;;;;;;5113112;28;20047;-77
2022/09/17 07:14:07;;;;;;;10.45;1.55;;;;;;;;;;5095290;28;20197;-77
2022/09/17 07:16:34;;;;;;;9.48;1.30;;;;;;;;;;5111058;28;20114;-77
2022/09/17 07:19:01;;;;;;;13.15;1.60;;;;;;;;;;5110796;28;20550;-77
2022/09/17 07:21:27;;;;;;;10.68;1.50;;;;;;;;;;5111788;28;20562;-77
2022/09/17 07:23:53;;;;;;;10.55;1.50;;;;;;;;;;5109542;28;20047;-78
2022/09/17 07:26:19;;;;;;;9.80;1.52;;;;;;;;;;5107558;28;20383;-77
2022/09/17 07:28:45;;;;;;;8.15;1.20;;;;;;;;;;5093986;28;20046;-77
2022/09/17 07:31:12;;;;;;;12.57;2.00;;;;;;;;;;5104470;28;20047;-77
2022/09/17 07:33:38;;;;;;;9.55;1.63;;;;;;;;;;5111854;28;20069;-78
2022/09/17 07:36:05;;;;;;;9.52;1.45;;;;;;;;;;5108730;28;20043;-77
2022/09/17 07:38:32;;;;;;;8.23;1.30;;;;;;;;;;5105386;28;20047;-77
2022/09/17 07:40:59;;;;;;;9.40;1.30;;;;;;;;;;5076242;28;20035;-77
2022/09/17 07:43:26;;;;;;;10.90;1.73;;;;;;;;;;5109986;28;20047;-77
2022/09/17 07:45:53;;;;;;;11.90;1.80;;;;;;;;;;5112769;28;20043;-78
2022/09/17 07:48:19;;;;;;;8.15;1.48;;;;;;;;;;5098557;28;20044;-78
2022/09/17 07:50:45;;;;;;;10.15;1.83;;;;;;;;;;5106979;28;20047;-79
2022/09/17 07:53:12;;;;;;;12.18;1.80;;;;;;;;;;5113284;28;20039;-78
2022/09/17 07:55:38;;;;;;;10.45;1.70;;;;;;;;;;5106839;28;20140;-78
2022/09/17 07:58:04;;;;;;;11.10;1.65;;;;;;;;;;5107544;28;20058;-78
2022/09/17 08:00:30;;;;;;;10.57;1.50;;;;;;;;;;5110575;28;20040;-79
2022/09/17 08:02:56;;;;;;;10.60;2.25;;;;;;;;;;5112658;28;20160;-78
2022/09/17 08:05:23;;;;;;;9.05;1.80;;;;;;;;;;5102027;28;20051;-78
2022/09/17 08:07:50;;;;;;;9.48;1.33;;;;;;;;;;5106855;28;20448;-78
2022/09/17 08:10:20;;;;;;;9.98;2.00;;;;;;;;;;5103565;28;20058;-79
2022/09/17 08:12:46;;;;;;;10.10;1.77;;;;;;;;;;5102307;28;20059;-77
2022/09/17 08:15:12;;;;;;;11.25;1.75;;;;;;;;;;5111290;28;20063;-78
2022/09/17 08:17:42;;;;;;;13.57;1.73;;;;;;;;;;5105432;28;20032;-78
2022/09/17 08:20:08;;;;;;;12.85;1.50;;;;;;;;;;5103220;28;20069;-78
2022/09/17 08:22:34;;;;;;;13.35;1.90;;;;;;;;;;5112997;28;20040;-78
2022/09/17 08:25:02;;;;;;;10.68;1.75;;;;;;;;;;5108350;28;20514;-78
2022/09/17 08:27:29;;;;;;;10.98;1.42;;;;;;;;;;5104293;28;20184;-78
2022/09/17 08:29:56;;;;;;;10.50;1.70;;;;;;;;;;5112780;28;20066;-78
2022/09/17 08:32:22;;;;;;;12.30;1.67;;;;;;;;;;5105968;28;20039;-78
2022/09/17 08:34:48;;;;;;;14.32;1.80;;;;;;;;;;5117601;28;20126;-78
2022/09/17 08:37:14;;;;;;;10.80;1.63;;;;;;;;;;5107531;28;20044;-78
2022/09/17 08:39:40;;;;;;;7.78;1.40;;;;;;;;;;5106933;28;20398;-78
2022/09/17 08:42:12;;;;;;;10.90;1.58;;;;;;;;;;5116670;28;20071;-78
2022/09/17 08:44:44;;;;;;;8.30;1.42;;;;;;;;;;5105589;28;20043;-77
2022/09/17 08:47:14;;;;;;;8.98;1.38;;;;;;;;;;5117503;27;20044;-77
2022/09/17 08:49:43;;;;;;;13.15;1.52;;;;;;;;;;5111362;28;20102;-77
2022/09/17 08:52:09;;;;;;;8.48;1.35;;;;;;;;;;5097904;28;20043;-77
2022/09/17 08:54:41;;;;;;;6.40;1.13;;;;;;;;;;5115314;28;20075;-76
2022/09/17 08:57:33;;;;;;;7.95;1.27;;;;;;;;;;5097325;28;20402;-77
2022/09/17 08:59:59;;;;;;;;;;;;;;;;;;5115405;28;20044;-77
2022/09/17 09:02:32;;;;;;;8.93;1.30;;;;;;;;;;5116355;28;19920;-77
2022/09/17 09:05:01;;;;;;;8.18;1.10;;;;;;;;;;5115698;28;20035;-78
2022/09/17 09:07:29;;;;;;;6.68;1.10;;;;;;;;;;5113962;28;20086;-77
2022/09/17 09:10:05;;;;;;;9.30;1.20;;;;;;;;;;5092486;28;20489;-77
2022/09/17 09:12:33;;;;;;;7.57;1.27;;;;;;;;;;5093762;28;20055;-77
2022/09/17 09:15:06;;;;;;;8.32;1.50;;;;;;;;;;5107386;28;20044;-77
2022/09/17 09:17:36;;;;;;;9.38;1.63;;;;;;;;;;5108377;28;20575;-77
2022/09/17 09:20:04;;;;;;;6.90;1.15;;;;;;;;;;5107015;28;20044;-77
2022/09/17 09:22:46;;;;;;;9.35;1.10;;;;;;;;;;5107695;28;20532;-77
2022/09/17 09:25:22;;;;;;;9.10;1.35;;;;;;;;;;5101567;28;20043;-76
2022/09/17 09:27:54;;;;;;;9.50;1.20;;;;;;;;;;5103065;28;20043;-77
2022/09/17 09:30:22;;;;;;;11.05;1.85;;;;;;;;;;5106013;28;20036;-76
2022/09/17 09:32:48;;;;;;;7.80;1.10;;;;;;;;;;5101566;28;20060;-77
2022/09/17 09:35:22;;;;;;;9.93;1.50;;;;;;;;;;5107306;28;20044;-77
2022/09/17 09:38:07;;;;;;;10.60;1.58;;;;;;;;;;5106403;28;20047;-77
2022/09/17 09:40:53;;;;;;;9.52;1.30;;;;;;;;;;5112438;28;20047;-77
2022/09/17 09:43:21;;;;;;;6.38;1.00;;;;;;;;;;5109681;28;20119;-77
2022/09/17 09:45:50;;;;;;;9.85;1.45;;;;;;;;;;5110268;28;20040;-77
2022/09/17 09:48:31;;;;;;;7.47;1.13;;;;;;;;;;5104494;28;20135;-77
2022/09/17 09:51:16;;;;;;;9.95;1.30;;;;;;;;;;5104350;28;20130;-77
2022/09/17 09:53:51;;;;;;;7.25;1.40;;;;;;;;;;5108350;27;20040;-77
2022/09/17 09:56:38;;;;;;;6.88;1.17;;;;;;;;;;5105548;28;20079;-77
2022/09/17 09:59:07;;;;;;;9.30;1.63;;;;;;;;;;5115271;28;20082;-77
2022/09/17 10:01:35;;;;;;;8.43;1.38;;;;;;;;;;5111898;28;20035;-77
2022/09/17 10:04:01;;;;;;;10.95;1.45;;;;;;;;;;5112183;28;20078;-78
2022/09/17 10:06:30;;;;;;;8.57;1.30;;;;;;;;;;5097792;27;20044;-78
2022/09/17 10:08:56;;;;;;;7.90;1.10;;;;;;;;;;5107707;28;20075;-77
2022/09/17 10:11:22;;;;;;;8.38;1.38;;;;;;;;;;5106481;28;20535;-77
2022/09/17 10:13:48;;;;;;;8.85;1.55;;;;;;;;;;5110078;27;20056;-77
2022/09/17 10:16:20;;;;;;;7.50;0.90;;;;;;;;;;5104856;28;20048;-77
2022/09/17 10:18:50;;;;;;;7.07;0.93;;;;;;;;;;5113936;28;20044;-77
2022/09/17 10:21:36;;;;;;;6.70;1.05;;;;;;;;;;5110341;28;20142;-77
2022/09/17 10:24:04;;;;;;;8.18;1.10;;;;;;;;;;5110996;28;20105;-77
2022/09/17 10:26:35;;;;;;;7.75;1.52;;;;;;;;;;5115106;28;20070;-77
2022/09/17 10:29:06;;;;;;;9.15;1.10;;;;;;;;;;5114337;28;20080;-77
2022/09/17 10:31:48;;;;;;;13.10;1.83;;;;;;;;;;5115909;27;20051;-77
2022/09/17 10:34:21;;;;;;;12.30;1.50;;;;;;;;;;5116449;28;20062;-77
2022/09/17 10:36:47;;;;;;;10.20;1.52;;;;;;;;;;5102660;28;20047;-77
2022/09/17 10:39:28;;;;;;;8.93;1.50;;;;;;;;;;5103770;28;20082;-77
2022/09/17 10:41:57;;;;;;;10.48;1.55;;;;;;;;;;5095845;28;20048;-76
2022/09/17 10:44:24;;;;;;;10.30;1.55;;;;;;;;;;5097118;28;20502;-77
2022/09/17 10:46:51;;;;;;;12.23;1.40;;;;;;;;;;5094484;28;20091;-76
2022/09/17 10:49:26;;;;;;;9.70;1.30;;;;;;;;;;5110034;27;20044;-76
2022/09/17 10:51:52;;;;;;;10.27;1.75;;;;;;;;;;5108827;28;20689;-76
2022/09/17 10:54:30;;;;;;;11.25;1.90;;;;;;;;;;5110895;28;20040;-77
2022/09/17 10:56:58;;;;;;;11.00;1.75;;;;;;;;;;5112905;28;20043;-76
2022/09/17 10:59:24;;;;;;;11.45;1.70;;;;;;;;;;5110517;28;20032;-76
2022/09/17 11:02:02;;;;;;;9.00;1.33;;;;;;;;;;5112230;28;20040;-76
2022/09/17 11:04:49;;;;;;;11.48;1.90;;;;;;;;;;5111863;28;20051;-76
2022/09/17 11:07:22;;;;;;;8.38;1.40;;;;;;;;;;5110556;27;20544;-76
2022/09/17 11:10:09;;;;;;;10.45;1.60;;;;;;;;;;5108804;28;20105;-77
2022/09/17 11:12:41;;;;;;;8.52;1.40;;;;;;;;;;5110277;28;20062;-76
2022/09/17 11:15:07;;;;;;;11.77;1.80;;;;;;;;;;5111113;28;20494;-76
2022/09/17 11:17:33;;;;;;;9.07;1.75;;;;;;;;;;5107788;28;20173;-76
2022/09/17 11:20:03;;;;;;;10.02;1.80;;;;;;;;;;5092412;28;20182;-76
2022/09/17 11:22:41;;;;;;;10.85;1.77;;;;;;;;;;5110832;28;20071;-76
2022/09/17 11:25:28;;;;;;;8.77;1.73;;;;;;;;;;5113599;28;20036;-76
2022/09/17 11:28:03;;;;;;;9.43;1.80;;;;;;;;;;5113357;28;20485;-76
2022/09/17 11:30:35;;;;;;;12.30;2.00;;;;;;;;;;5100199;28;20043;-76
2022/09/17 11:33:07;;;;;;;9.32;1.70;;;;;;;;;;5109618;28;20066;-76
2022/09/17 11:35:39;;;;;;;12.52;2.00;;;;;;;;;;5112240;28;20051;-77
2022/09/17 11:38:12;;;;;;;13.40;1.83;;;;;;;;;;5114179;28;20054;-76
2022/09/17 11:40:43;;;;;;;10.75;2.03;;;;;;;;;;5114006;28;20063;-77
2022/09/17 11:43:09;;;;;;;;;;;;;;;;;;5113403;28;20402;-76
2022/09/17 11:45:40;;;;;;;12.77;1.95;;;;;;;;;;5104140;28;19920;-77
2022/09/17 11:48:06;;;;;;;;;;;;;;;;;;5114620;28;20043;-76
2022/09/17 11:50:41;;;;;;;11.48;1.75;;;;;;;;;;5111259;28;19919;-76
2022/09/17 11:53:10;;;;;;;8.48;1.35;;;;;;;;;;5106989;28;20118;-76
2022/09/17 11:55:59;;;;;;;13.32;1.65;;;;;;;;;;5111781;28;20050;-76
2022/09/17 11:58:48;;;;;;;10.57;1.70;;;;;;;;;;5105456;28;20044;-76
2022/09/17 12:01:36;;;;;;;11.73;1.90;;;;;;;;;;5103704;28;20047;-76
2022/09/17 12:04:22;;;;;;;7.15;1.63;;;;;;;;;;5101284;28;20048;-76
2022/09/17 12:06:59;;;;;;;10.60;1.90;;;;;;;;;;5075573;28;20054;-76
2022/09/17 12:09:27;;;;;;;9.27;1.40;;;;;;;;;;5117535;28;20053;-76
2022/09/17 12:12:05;;;;;;;10.95;2.20;;;;;;;;;;5116438;28;20088;-76
2022/09/17 12:14:37;;;;;;;10.38;1.73;;;;;;;;;;5100076;28;20087;-76
2022/09/17 12:17:07;;;;;;;12.88;2.13;;;;;;;;;;5119720;28;20067;-76
2022/09/17 12:19:35;;;;;;;16.75;2.42;;;;;;;;;;5110494;28;20059;-76
2022/09/17 12:22:05;;;;;;;11.02;1.95;;;;;;;;;;5100261;28;20043;-76
2022/09/17 12:24:31;;;;;;;15.57;2.38;;;;;;;;;;5119206;28;20130;-76
2022/09/17 12:27:09;;;;;;;11.63;1.98;;;;;;;;;;5111507;28;20047;-76
2022/09/17 12:29:47;;;;;;;14.20;2.00;;;;;;;;;;5100291;28;20044;-76
2022/09/17 12:32:31;;;;;;;11.02;2.15;;;;;;;;;;5105741;28;20044;-76
2022/09/17 12:35:07;;;;;;;11.65;2.05;;;;;;;;;;5118988;28;20047;-76
2022/09/17 12:37:41;;;;;;;11.32;2.40;;;;;;;;;;5100395;28;20059;-77
2022/09/17 12:40:07;;;;;;;15.25;2.50;;;;;;;;;;5099258;28;20052;-76
2022/09/17 12:42:53;;;;;;;15.68;2.42;;;;;;;;;;5101358;28;20035;-77
2022/09/17 12:45:26;;;;;;;15.30;2.42;;;;;;;;;;5089096;28;20096;-77
2022/09/17 12:47:52;;;;;;;15.25;2.90;;;;;;;;;;5110609;28;20046;-76
2022/09/17 12:50:24;;;;;;;15.48;2.78;;;;;;;;;;5105143;28;20040;-76
2022/09/17 12:53:01;;;;;;;11.57;2.60;;;;;;;;;;5112127;28;20433;-76
2022/09/17 12:55:30;;;;;;;18.02;2.67;;;;;;;;;;5111356;28;20354;-76
2022/09/17 12:58:00;;;;;;;17.20;2.50;;;;;;;;;;5111614;28;20505;-76
2022/09/17 13:00:26;;;;;;;14.13;3.17;;;;;;;;;;5114288;28;20421;-76
2022/09/17 13:03:05;;;;;;;14.77;2.67;;;;;;;;;;5112652;28;20047;-76
2022/09/17 13:05:34;;;;;;;12.23;2.38;;;;;;;;;;5112264;28;20047;-76
2022/09/17 13:08:00;;;;;;;12.20;2.25;;;;;;;;;;5109852;28;20040;-76
2022/09/17 13:10:26;;;;;;;15.75;3.35;;;;;;;;;;5104014;28;20047;-76
2022/09/17 13:13:01;;;;;;;12.25;2.30;;;;;;;;;;5100675;28;20052;-76
2022/09/17 13:15:35;;;;;;;12.02;2.15;;;;;;;;;;5093441;28;20103;-76
2022/09/17 13:18:06;;;;;;;10.95;2.50;;;;;;;;;;5100594;27;20440;-76
2022/09/17 13:20:45;;;;;;;13.85;2.63;;;;;;;;;;5115486;28;20048;-76
2022/09/17 13:23:11;;;;;;;14.88;2.50;;;;;;;;;;5104409;28;20097;-77
2022/09/17 13:25:49;;;;;;;14.25;2.00;;;;;;;;;;5113480;28;20113;-76
2022/09/17 13:28:15;;;;;;;13.40;2.50;;;;;;;;;;5115920;28;20039;-76
2022/09/17 13:31:00;;;;;;;13.55;2.35;;;;;;;;;;5113663;28;20075;-76
2022/09/17 13:33:45;;;;;;;9.18;1.80;;;;;;;;;;5102808;28;20131;-76
2022/09/17 13:36:30;;;;;;;13.13;2.05;;;;;;;;;;5101633;28;20044;-76
2022/09/17 13:38:56;;;;;;;12.88;1.60;;;;;;;;;;5112116;28;20051;-76
2022/09/17 13:41:24;;;;;;;14.27;2.35;;;;;;;;;;5104027;28;20128;-76
2022/09/17 13:43:53;;;;;;;16.00;2.00;;;;;;;;;;5112454;28;20040;-76
2022/09/17 13:46:22;;;;;;;14.90;2.13;;;;;;;;;;5103092;28;20044;-77
2022/09/17 13:48:49;;;;;;;11.52;1.83;;;;;;;;;;5109114;28;20096;-76
2022/09/17 13:51:38;;;;;;;19.20;2.65;;;;;;;;;;5100649;28;20044;-77
2022/09/17 13:54:05;;;;;;;18.45;2.60;;;;;;;;;;5115078;28;20042;-77
2022/09/17 13:56:36;;;;;;;13.07;2.33;;;;;;;;;;5103102;28;20044;-76
2022/09/17 13:59:07;;;;;;;16.13;2.83;;;;;;;;;;5118848;28;20044;-77
2022/09/17 14:01:48;;;;;;;13.73;2.30;;;;;;;;;;5104687;28;20050;-77
2022/09/17 14:04:14;;;;;;;;;;;;;;;;;;5099119;28;20056;-76
2022/09/17 14:06:40;;;;;;;15.35;2.42;;;;;;;;;;5115559;28;20265;-76
2022/09/17 14:09:26;;;;;;;16.83;2.75;;;;;;;;;;5115290;28;20506;-76
2022/09/17 14:11:52;;;;;;;20.83;2.67;;;;;;;;;;5097700;28;20410;-76
2022/09/17 14:14:27;;;;;;;13.52;2.47;;;;;;;;;;5101515;27;20099;-76
2022/09/17 14:16:54;;;;;;;15.25;2.08;;;;;;;;;;5112302;28;20368;-77
2022/09/17 14:19:24;;;;;;;17.00;2.75;;;;;;;;;;5109421;28;20048;-77
2022/09/17 14:21:58;;;;;;;17.05;2.47;;;;;;;;;;5114516;28;20100;-77
2022/09/17 14:24:30;;;;;;;16.27;2.15;;;;;;;;;;5102566;27;20067;-77
2022/09/17 14:27:06;;;;;;;14.68;2.28;;;;;;;;;;5101132;28;20051;-76
2022/09/17 14:29:32;;;;;;;17.70;2.63;;;;;;;;;;5113264;28;20391;-77
2022/09/17 14:31:58;;;;;;;11.60;2.85;;;;;;;;;;5106978;28;20046;-77
2022/09/17 14:34:25;;;;;;;13.18;2.22;;;;;;;;;;5116949;28;20049;-77
2022/09/17 14:36:52;;;;;;;13.77;2.33;;;;;;;;;;5116351;28;20085;-77
2022/09/17 14:39:28;;;;;;;13.50;2.38;;;;;;;;;;5115688;28;20044;-76
2022/09/17 14:41:55;;;;;;;12.90;2.13;;;;;;;;;;5115014;28;20043;-77
2022/09/17 14:44:22;;;;;;;10.07;1.63;;;;;;;;;;5115971;28;20043;-77
2022/09/17 14:46:56;;;;;;;11.20;1.98;;;;;;;;;;5117822;28;20126;-76
2022/09/17 14:49:23;;;;;;;13.07;1.90;;;;;;;;;;5118812;28;20092;-77